»·PEaware :: N664NT KEWR-KJFK

N664NT :: KEWR-KJFK

FLIGHT INFORMATION

Flight Status: Arrived
Operator: Privately registered:
United States
More flights under this callsign
Pilot: Anonymous 328 (328)
Aircraft: Unknown
(GA7C)
More flights by this aircraft type
Origin: KEWR Newark Intl
United States
Destination: KJFK Kennedy Intl
United States
More flights between these airports :: More routes between these airports
Route: EWR4 BREZY V39 CMK V419 JUDDS NELIE MAD V1 DPK
File this flight plan on PilotEdge
Remarks:
Altitude:
(Current/Filed)
11,000ft
Speed:
(Current/Filed)
0kts
Departed: 10-May-23 07:22 AM
Arrived: 10-May-23 08:21 AM
Distance/Time
Traveled:
19nm/0:59
Distance/Time
To Go:
Arrived

Flight Plot

Page will automatically refresh every two minutes.

Flight plan parsing failed; only flown route is shown


Map Options




Map Legend


Flown Route
Filed Route
Departure Airport
Arrival Airport
Navaid (VOR, NDB)
Fix

Horizontal Profiles

Position Reports

Time Latitude Longitude Heading Altitude Ground
Speed
10-May-23 07:03 40.694290 -74.168991 207 19ft 0kts
10-May-23 07:04 40.694290 -74.168991 207 19ft 0kts
10-May-23 07:05 40.693245 -74.169670 205 19ft 2kts
10-May-23 07:06 40.691772 -74.170616 205 19ft 7kts
10-May-23 07:07 40.689796 -74.171875 205 19ft 13kts
10-May-23 07:08 40.686115 -74.174225 206 19ft 15kts
10-May-23 07:09 40.682030 -74.176826 205 19ft 16kts
10-May-23 07:10 40.677654 -74.179611 205 19ft 18kts
10-May-23 07:11 40.676231 -74.180412 178 19ft 0kts
10-May-23 07:12 40.676231 -74.180412 178 19ft 0kts
10-May-23 07:13 40.676231 -74.180412 178 19ft 0kts
10-May-23 07:14 40.676231 -74.180412 178 19ft 0kts
10-May-23 07:15 40.676231 -74.180412 178 19ft 0kts
10-May-23 07:16 40.676231 -74.180412 178 19ft 0kts
10-May-23 07:17 40.676231 -74.180412 178 19ft 0kts
10-May-23 07:18 40.676231 -74.180412 178 19ft 0kts
10-May-23 07:19 40.676231 -74.180412 178 19ft 0kts
10-May-23 07:20 40.675694 -74.179451 58 19ft 17kts
10-May-23 07:21 40.708439 -74.155571 46 2317ft 209kts
10-May-23 07:22 40.755589 -74.089165 42 5567ft 269kts
10-May-23 07:23 40.821144 -74.104561 298 9828ft 285kts
10-May-23 07:24 40.835400 -74.224770 276 11005ft 372kts
10-May-23 07:25 40.883129 -74.338295 335 11007ft 373kts
10-May-23 07:26 40.979053 -74.313957 37 11007ft 373kts
10-May-23 07:27 41.061760 -74.231461 36 11005ft 373kts
10-May-23 07:28 41.141556 -74.151703 37 10820ft 319kts
10-May-23 07:29 41.161018 -74.067390 143 10043ft 253kts
10-May-23 07:30 41.105171 -74.093727 217 10007ft 231kts
10-May-23 07:31 41.053986 -74.145126 215 10036ft 231kts
10-May-23 07:32 41.001789 -74.194664 215 10102ft 230kts
10-May-23 07:33 40.949257 -74.243446 224 10131ft 230kts
10-May-23 07:34 40.953079 -74.319115 306 10169ft 226kts
10-May-23 07:35 41.007622 -74.350609 25 10984ft 234kts
10-May-23 07:36 41.052013 -74.287483 53 11009ft 251kts
10-May-23 07:37 41.107643 -74.188835 52 11005ft 372kts
10-May-23 07:38 41.171322 -74.076813 52 11006ft 390kts
10-May-23 07:39 41.239735 -73.956055 53 11007ft 439kts
10-May-23 07:40 41.318092 -73.817062 53 11003ft 494kts
10-May-23 07:41 41.399967 -73.671135 53 11012ft 490kts
10-May-23 07:42 41.481487 -73.525116 53 11011ft 490kts
10-May-23 07:43 41.562550 -73.379242 53 11011ft 490kts
10-May-23 07:44 41.643692 -73.232491 53 11012ft 490kts
10-May-23 07:45 41.722404 -73.089470 53 11010ft 447kts
10-May-23 07:46 41.789108 -72.967735 53 10961ft 346kts
10-May-23 07:47 41.842247 -72.870026 53 8578ft 305kts
10-May-23 07:48 41.888031 -72.785561 53 6323ft 273kts
10-May-23 07:49 41.929955 -72.701401 62 4049ft 274kts
10-May-23 07:50 41.904907 -72.622742 166 2011ft 256kts
10-May-23 07:51 41.836933 -72.640312 222 2001ft 257kts
10-May-23 07:52 41.787903 -72.710281 222 2001ft 257kts
10-May-23 07:53 41.735603 -72.774452 232 2001ft 257kts
10-May-23 07:54 41.692699 -72.851173 233 2465ft 259kts
10-May-23 07:55 41.638630 -72.910332 190 2378ft 258kts
10-May-23 07:56 41.569202 -72.891342 160 2773ft 259kts
10-May-23 07:57 41.500706 -72.858116 160 4755ft 265kts
10-May-23 07:58 41.429623 -72.823700 160 7692ft 277kts
10-May-23 07:59 41.356052 -72.788147 160 9006ft 284kts
10-May-23 08:00 41.281647 -72.752235 160 9006ft 284kts
10-May-23 08:01 41.207092 -72.716942 167 9001ft 284kts
10-May-23 08:02 41.145073 -72.771255 229 9004ft 284kts
10-May-23 08:03 41.093086 -72.850525 228 9005ft 284kts
10-May-23 08:04 41.040901 -72.929520 228 9006ft 284kts
10-May-23 08:05 40.988682 -73.008362 228 9004ft 284kts
10-May-23 08:06 40.937687 -73.085152 228 9007ft 252kts
10-May-23 08:07 40.895004 -73.149254 228 9003ft 228kts
10-May-23 08:08 40.853001 -73.212219 228 9005ft 228kts
10-May-23 08:09 40.810970 -73.275101 228 9005ft 228kts
10-May-23 08:10 40.758282 -73.315445 196 8571ft 225kts
10-May-23 08:11 40.702785 -73.345230 248 7162ft 221kts
10-May-23 08:12 40.714481 -73.422844 286 5819ft 217kts
10-May-23 08:13 40.730774 -73.495094 286 5071ft 186kts
10-May-23 08:14 40.745369 -73.559738 286 3726ft 182kts
10-May-23 08:15 40.757763 -73.623383 265 2637ft 176kts
10-May-23 08:16 40.727406 -73.667061 220 2201ft 153kts
10-May-23 08:17 40.695023 -73.702942 221 1353ft 149kts
10-May-23 08:18 40.664936 -73.738190 214 551ft 143kts
10-May-23 08:19 40.634621 -73.763130 211 20ft 41kts
10-May-23 08:21 40.632244 -73.766319 264 20ft 6kts
10-May-23 08:22 40.632385 -73.767334 299 20ft 0kts
10-May-23 08:23 40.632385 -73.767334 299 20ft 0kts
10-May-23 08:24 40.632385 -73.767334 299 20ft 0kts
10-May-23 08:25 40.632385 -73.767334 299 20ft 0kts
10-May-23 08:26 40.632385 -73.767334 299 20ft 0kts
10-May-23 08:27 40.632385 -73.767334 299 20ft 0kts
10-May-23 08:28 40.632385 -73.767334 299 20ft 0kts
10-May-23 08:29 40.632385 -73.767334 299 20ft 0kts
10-May-23 08:30 40.632385 -73.767334 299 20ft 0kts
10-May-23 08:31 40.632385 -73.767334 299 20ft 0kts
10-May-23 08:32 40.632385 -73.767334 299 20ft 0kts
10-May-23 08:33 40.632385 -73.767334 299 20ft 0kts
10-May-23 08:34 40.632385 -73.767334 299 20ft 0kts

Navigation Log

Ident Type
Flight plan parsing failed, navigation log unavailable